KBLI

Bellingham International Airport

Bellingham, Washington, USA
KBLI 260520Z 2606/2706 00000KT P6SM FEW250 FM261700 31005KT P6SM SCT200 FM270400 19003KT P6SM SCT200
Issued Valid From Valid To
Apr-26 @ 05:20 UTC
(42 minutes ago)
Apr-26 @ 06:00 UTC
(2 minutes ago)
Apr-27 @ 06:00 UTC
(in 24 hours)
Apr-26 @ 06:00 to Apr-26 @ 17:00
KBLI 260520Z 2606/2706 00000KT P6SM FEW250
Visibility Clouds
Greater than 6 miles
  • Few at 25,000' AGL
From Apr-26 @ 17:00 to Apr-27 @ 04:00
FM261700 31005KT P6SM SCT200
Wind Visibility Clouds
310° at 5 knots Greater than 6 miles
  • Scattered at 20,000' AGL
From Apr-27 @ 04:00 to Apr-27 @ 06:00
FM270400 19003KT P6SM SCT200
Wind Visibility Clouds
190° at 3 knots Greater than 6 miles
  • Scattered at 20,000' AGL
KBLI 260520Z 2606/2706 00000KT P6SM FEW250 FM261700 31005KT P6SM SCT200 FM270400 19003KT P6SM SCT200
Issued Apr-26 @ 05:20 UTC
(42 minutes ago)
Valid From Apr-26 @ 06:00 UTC
(2 minutes ago)
Valid To Apr-27 @ 06:00 UTC
(in 24 hours)
Apr-26 @ 06:00 - Apr-26 @ 17:00
Clouds
  • Few at 25,000' AGL
From Apr-26 @ 17:00 - Apr-27 @ 04:00
Wind Visibility
310° at 5 knots Greater than 6 miles
Clouds
  • Scattered at 20,000' AGL
From Apr-27 @ 04:00 - Apr-27 @ 06:00
Wind Visibility
190° at 3 knots Greater than 6 miles
Clouds
  • Scattered at 20,000' AGL